sensor_id;sensor_type;location;lat;lon;timestamp;pressure;altitude;pressure_sealevel;temperature;humidity
76694;BME280;69667;52.136;5.424;2023-06-10T00:01:44;101508.78;;;20.70;51.00
76694;BME280;69667;52.136;5.424;2023-06-10T00:04:14;101514.97;;;20.72;50.90
76694;BME280;69667;52.136;5.424;2023-06-10T00:06:44;101507.44;;;20.74;50.64
76694;BME280;69667;52.136;5.424;2023-06-10T00:09:11;101505.88;;;20.72;50.42
76694;BME280;69667;52.136;5.424;2023-06-10T00:11:40;101511.00;;;20.67;50.43
76694;BME280;69667;52.136;5.424;2023-06-10T00:14:07;101522.47;;;20.62;50.66
76694;BME280;69667;52.136;5.424;2023-06-10T00:16:37;101524.50;;;20.60;50.29
76694;BME280;69667;52.136;5.424;2023-06-10T00:19:08;101523.97;;;20.57;50.30
76694;BME280;69667;52.136;5.424;2023-06-10T00:21:37;101528.63;;;20.56;50.09
76694;BME280;69667;52.136;5.424;2023-06-10T00:24:08;101528.63;;;20.56;49.82
76694;BME280;69667;52.136;5.424;2023-06-10T00:26:44;101524.31;;;20.54;49.85
76694;BME280;69667;52.136;5.424;2023-06-10T00:29:19;101528.09;;;20.53;50.19
76694;BME280;69667;52.136;5.424;2023-06-10T00:31:49;101524.47;;;20.52;49.63
76694;BME280;69667;52.136;5.424;2023-06-10T00:34:43;101525.50;;;20.51;49.93
76694;BME280;69667;52.136;5.424;2023-06-10T00:37:18;101528.53;;;20.48;48.94
76694;BME280;69667;52.136;5.424;2023-06-10T00:39:50;101532.50;;;20.46;49.74
76694;BME280;69667;52.136;5.424;2023-06-10T00:42:17;101529.38;;;20.41;49.40
76694;BME280;69667;52.136;5.424;2023-06-10T00:44:50;101537.22;;;20.36;49.01
76694;BME280;69667;52.136;5.424;2023-06-10T00:47:19;101533.63;;;20.35;48.62
76694;BME280;69667;52.136;5.424;2023-06-10T00:49:52;101531.38;;;20.31;49.19
76694;BME280;69667;52.136;5.424;2023-06-10T00:52:22;101539.03;;;20.27;48.81
76694;BME280;69667;52.136;5.424;2023-06-10T00:54:51;101530.97;;;20.26;48.95
76694;BME280;69667;52.136;5.424;2023-06-10T00:57:26;101530.28;;;20.24;47.88
76694;BME280;69667;52.136;5.424;2023-06-10T00:59:57;101534.22;;;20.21;48.37
76694;BME280;69667;52.136;5.424;2023-06-10T01:02:24;101531.94;;;20.17;48.63
76694;BME280;69667;52.136;5.424;2023-06-10T01:04:57;101533.84;;;20.16;47.99
76694;BME280;69667;52.136;5.424;2023-06-10T01:08:03;101536.84;;;20.13;49.43
76694;BME280;69667;52.136;5.424;2023-06-10T01:11:01;101541.19;;;20.16;47.89
76694;BME280;69667;52.136;5.424;2023-06-10T01:13:41;101535.13;;;20.12;48.10
76694;BME280;69667;52.136;5.424;2023-06-10T01:16:26;101540.63;;;20.12;49.48
76694;BME280;69667;52.136;5.424;2023-06-10T01:18:55;101546.19;;;20.02;49.60
76694;BME280;69667;52.136;5.424;2023-06-10T01:21:33;101543.75;;;19.99;49.02
76694;BME280;69667;52.136;5.424;2023-06-10T01:24:01;101544.78;;;19.98;49.02
76694;BME280;69667;52.136;5.424;2023-06-10T01:26:34;101542.75;;;20.00;48.89
76694;BME280;69667;52.136;5.424;2023-06-10T01:29:11;101541.50;;;19.95;48.74
76694;BME280;69667;52.136;5.424;2023-06-10T01:32:01;101542.38;;;19.95;49.25
76694;BME280;69667;52.136;5.424;2023-06-10T01:34:31;101541.66;;;19.93;49.09
76694;BME280;69667;52.136;5.424;2023-06-10T01:36:59;101545.75;;;19.89;49.36
76694;BME280;69667;52.136;5.424;2023-06-10T01:39:30;101547.78;;;19.87;49.62
76694;BME280;69667;52.136;5.424;2023-06-10T01:41:58;101549.97;;;19.84;49.19
76694;BME280;69667;52.136;5.424;2023-06-10T01:44:51;101547.56;;;19.81;49.92
76694;BME280;69667;52.136;5.424;2023-06-10T01:47:18;101550.91;;;19.75;49.38
76694;BME280;69667;52.136;5.424;2023-06-10T01:49:50;101546.78;;;19.71;50.25
76694;BME280;69667;52.136;5.424;2023-06-10T01:52:26;101542.94;;;19.64;50.15
76694;BME280;69667;52.136;5.424;2023-06-10T01:54:53;101543.25;;;19.61;50.53
76694;BME280;69667;52.136;5.424;2023-06-10T01:57:20;101544.25;;;19.60;50.72
76694;BME280;69667;52.136;5.424;2023-06-10T01:59:47;101540.69;;;19.59;50.99
76694;BME280;69667;52.136;5.424;2023-06-10T02:02:14;101557.78;;;19.61;51.37
76694;BME280;69667;52.136;5.424;2023-06-10T02:04:40;101545.88;;;19.53;51.28
76694;BME280;69667;52.136;5.424;2023-06-10T02:07:16;101554.25;;;19.51;51.32
76694;BME280;69667;52.136;5.424;2023-06-10T02:09:42;101550.13;;;19.47;51.88
76694;BME280;69667;52.136;5.424;2023-06-10T02:12:10;101549.75;;;19.42;52.62
76694;BME280;69667;52.136;5.424;2023-06-10T02:14:43;101548.78;;;19.34;52.97
76694;BME280;69667;52.136;5.424;2023-06-10T02:17:10;101554.72;;;19.29;53.74
76694;BME280;69667;52.136;5.424;2023-06-10T02:19:41;101555.59;;;19.20;53.11
76694;BME280;69667;52.136;5.424;2023-06-10T02:22:09;101551.72;;;19.23;52.65
76694;BME280;69667;52.136;5.424;2023-06-10T02:24:36;101551.72;;;19.23;53.00
76694;BME280;69667;52.136;5.424;2023-06-10T02:27:05;101561.09;;;19.20;53.61
76694;BME280;69667;52.136;5.424;2023-06-10T02:29:34;101561.00;;;19.12;53.41
76694;BME280;69667;52.136;5.424;2023-06-10T02:32:02;101563.88;;;19.11;54.00
76694;BME280;69667;52.136;5.424;2023-06-10T02:34:30;101568.81;;;19.07;53.65
76694;BME280;69667;52.136;5.424;2023-06-10T02:37:12;101568.50;;;19.10;53.75
76694;BME280;69667;52.136;5.424;2023-06-10T02:39:39;101577.16;;;19.06;55.35
76694;BME280;69667;52.136;5.424;2023-06-10T02:42:09;101569.69;;;18.98;54.63
76694;BME280;69667;52.136;5.424;2023-06-10T02:45:00;101564.22;;;18.98;54.46
76694;BME280;69667;52.136;5.424;2023-06-10T02:47:34;101565.97;;;18.99;54.16
76694;BME280;69667;52.136;5.424;2023-06-10T02:50:02;101564.84;;;18.92;54.67
76694;BME280;69667;52.136;5.424;2023-06-10T02:52:37;101564.13;;;18.90;55.13
76694;BME280;69667;52.136;5.424;2023-06-10T02:55:07;101566.28;;;18.86;55.38
76694;BME280;69667;52.136;5.424;2023-06-10T02:57:51;101570.06;;;18.85;55.13
76694;BME280;69667;52.136;5.424;2023-06-10T03:00:43;101568.03;;;18.87;56.00
76694;BME280;69667;52.136;5.424;2023-06-10T03:03:12;101571.34;;;18.81;55.84
76694;BME280;69667;52.136;5.424;2023-06-10T03:05:51;101565.03;;;18.81;55.89
76694;BME280;69667;52.136;5.424;2023-06-10T03:08:20;101569.66;;;18.80;55.46
76694;BME280;69667;52.136;5.424;2023-06-10T03:10:49;101578.41;;;18.84;55.69
76694;BME280;69667;52.136;5.424;2023-06-10T03:13:18;101570.63;;;18.79;55.84
76694;BME280;69667;52.136;5.424;2023-06-10T03:15:48;101578.00;;;18.79;55.66
76694;BME280;69667;52.136;5.424;2023-06-10T03:18:37;101577.13;;;18.78;55.69
76694;BME280;69667;52.136;5.424;2023-06-10T03:21:14;101566.50;;;18.75;56.47
76694;BME280;69667;52.136;5.424;2023-06-10T03:23:45;101574.28;;;18.70;56.25
76694;BME280;69667;52.136;5.424;2023-06-10T03:26:31;101578.91;;;18.70;55.73
76694;BME280;69667;52.136;5.424;2023-06-10T03:29:01;101576.47;;;18.67;56.30
76694;BME280;69667;52.136;5.424;2023-06-10T03:31:44;101581.22;;;18.65;56.56
76694;BME280;69667;52.136;5.424;2023-06-10T03:34:24;101576.63;;;18.65;56.47
76694;BME280;69667;52.136;5.424;2023-06-10T03:37:38;101573.63;;;18.59;56.48
76694;BME280;69667;52.136;5.424;2023-06-10T03:41:29;101573.94;;;18.56;56.93
76694;BME280;69667;52.136;5.424;2023-06-10T03:49:18;101586.88;;;18.54;57.15
76694;BME280;69667;52.136;5.424;2023-06-10T03:53:15;101591.03;;;18.58;57.08
76694;BME280;69667;52.136;5.424;2023-06-10T03:56:52;101588.84;;;18.61;56.80
76694;BME280;69667;52.136;5.424;2023-06-10T03:59:40;101589.56;;;18.63;57.28
76694;BME280;69667;52.136;5.424;2023-06-10T04:03:08;101594.31;;;18.61;56.96
76694;BME280;69667;52.136;5.424;2023-06-10T04:05:49;101598.81;;;18.62;57.33
76694;BME280;69667;52.136;5.424;2023-06-10T04:08:36;101596.06;;;18.62;57.80
76694;BME280;69667;52.136;5.424;2023-06-10T04:15:23;101599.50;;;18.64;57.81
76694;BME280;69667;52.136;5.424;2023-06-10T04:17:53;101592.00;;;18.66;58.09
76694;BME280;69667;52.136;5.424;2023-06-10T04:21:15;101598.19;;;18.68;57.89
76694;BME280;69667;52.136;5.424;2023-06-10T04:23:52;101603.22;;;18.73;57.96
76694;BME280;69667;52.136;5.424;2023-06-10T04:26:31;101598.47;;;18.75;58.46
76694;BME280;69667;52.136;5.424;2023-06-10T04:29:57;101603.47;;;18.79;58.70
76694;BME280;69667;52.136;5.424;2023-06-10T04:32:50;101610.69;;;18.80;58.09
76694;BME280;69667;52.136;5.424;2023-06-10T04:36:20;101611.25;;;18.84;58.28
76694;BME280;69667;52.136;5.424;2023-06-10T04:39:39;101608.06;;;18.88;59.07
76694;BME280;69667;52.136;5.424;2023-06-10T04:42:50;101604.72;;;18.94;58.41
76694;BME280;69667;52.136;5.424;2023-06-10T04:45:53;101613.31;;;19.00;58.43
76694;BME280;69667;52.136;5.424;2023-06-10T04:48:31;101616.78;;;19.02;58.06
76694;BME280;69667;52.136;5.424;2023-06-10T04:52:04;101622.09;;;19.13;58.57
76694;BME280;69667;52.136;5.424;2023-06-10T05:18:29;101628.19;;;19.61;57.19
76694;BME280;69667;52.136;5.424;2023-06-10T05:21:02;101617.22;;;19.61;57.39
76694;BME280;69667;52.136;5.424;2023-06-10T05:23:52;101623.88;;;19.76;57.08
76694;BME280;69667;52.136;5.424;2023-06-10T05:48:54;101613.28;;;29.45;35.07
76694;BME280;69667;52.136;5.424;2023-06-10T05:51:48;101612.47;;;29.89;33.95
76694;BME280;69667;52.136;5.424;2023-06-10T05:58:09;101611.28;;;31.69;30.81
76694;BME280;69667;52.136;5.424;2023-06-10T06:01:02;101613.59;;;31.72;30.56
76694;BME280;69667;52.136;5.424;2023-06-10T06:03:57;101609.09;;;31.71;30.92
76694;BME280;69667;52.136;5.424;2023-06-10T06:06:55;101604.50;;;31.76;30.44
76694;BME280;69667;52.136;5.424;2023-06-10T06:10:12;101605.56;;;32.64;28.66
76694;BME280;69667;52.136;5.424;2023-06-10T06:12:52;101605.81;;;32.33;29.85
76694;BME280;69667;52.136;5.424;2023-06-10T06:15:25;101610.53;;;32.74;29.52
76694;BME280;69667;52.136;5.424;2023-06-10T06:18:49;101610.06;;;33.34;28.15
76694;BME280;69667;52.136;5.424;2023-06-10T06:22:09;101612.28;;;33.09;28.12
76694;BME280;69667;52.136;5.424;2023-06-10T06:25:06;101601.16;;;33.38;27.81
76694;BME280;69667;52.136;5.424;2023-06-10T06:28:27;101603.00;;;33.95;27.81
76694;BME280;69667;52.136;5.424;2023-06-10T06:30:58;101603.03;;;33.72;26.63
76694;BME280;69667;52.136;5.424;2023-06-10T06:33:24;101606.00;;;33.65;26.86
76694;BME280;69667;52.136;5.424;2023-06-10T06:35:52;101600.78;;;33.97;26.50
76694;BME280;69667;52.136;5.424;2023-06-10T06:38:20;101600.59;;;34.15;26.41
76694;BME280;69667;52.136;5.424;2023-06-10T06:40:47;101597.38;;;34.23;25.45
76694;BME280;69667;52.136;5.424;2023-06-10T06:43:14;101595.38;;;34.23;25.89
76694;BME280;69667;52.136;5.424;2023-06-10T06:45:41;101593.09;;;34.65;25.23
76694;BME280;69667;52.136;5.424;2023-06-10T06:48:08;101608.03;;;34.87;25.40
76694;BME280;69667;52.136;5.424;2023-06-10T06:50:34;101603.13;;;35.32;24.26
76694;BME280;69667;52.136;5.424;2023-06-10T06:53:01;101608.75;;;34.94;24.95
76694;BME280;69667;52.136;5.424;2023-06-10T06:55:27;101599.09;;;34.74;24.88
76694;BME280;69667;52.136;5.424;2023-06-10T06:57:54;101604.97;;;34.72;25.57
76694;BME280;69667;52.136;5.424;2023-06-10T07:00:21;101604.16;;;35.43;24.71
76694;BME280;69667;52.136;5.424;2023-06-10T07:02:48;101606.69;;;35.66;24.41
76694;BME280;69667;52.136;5.424;2023-06-10T07:05:14;101597.78;;;35.74;23.11
76694;BME280;69667;52.136;5.424;2023-06-10T07:07:41;101606.44;;;35.89;23.49
76694;BME280;69667;52.136;5.424;2023-06-10T07:10:08;101611.22;;;36.37;22.66
76694;BME280;69667;52.136;5.424;2023-06-10T07:12:34;101607.81;;;36.35;23.36
76694;BME280;69667;52.136;5.424;2023-06-10T07:15:03;101613.03;;;36.00;23.56
76694;BME280;69667;52.136;5.424;2023-06-10T07:17:32;101608.38;;;35.45;23.81
76694;BME280;69667;52.136;5.424;2023-06-10T07:20:01;101617.13;;;35.11;24.04
76694;BME280;69667;52.136;5.424;2023-06-10T07:22:28;101613.91;;;35.02;24.25
76694;BME280;69667;52.136;5.424;2023-06-10T07:24:55;101610.16;;;35.13;24.09
76694;BME280;69667;52.136;5.424;2023-06-10T07:27:21;101615.56;;;34.98;24.77
76694;BME280;69667;52.136;5.424;2023-06-10T07:29:48;101608.16;;;35.90;24.01
76694;BME280;69667;52.136;5.424;2023-06-10T07:32:15;101609.63;;;36.24;24.66
76694;BME280;69667;52.136;5.424;2023-06-10T07:34:44;101603.09;;;36.19;24.44
76694;BME280;69667;52.136;5.424;2023-06-10T07:37:11;101600.00;;;36.42;22.91
76694;BME280;69667;52.136;5.424;2023-06-10T07:39:37;101612.22;;;36.57;22.94
76694;BME280;69667;52.136;5.424;2023-06-10T07:42:04;101609.13;;;36.59;22.56
76694;BME280;69667;52.136;5.424;2023-06-10T07:44:31;101611.25;;;36.42;24.69
76694;BME280;69667;52.136;5.424;2023-06-10T07:46:58;101605.34;;;36.75;23.44
76694;BME280;69667;52.136;5.424;2023-06-10T07:49:24;101628.13;;;37.05;21.85
76694;BME280;69667;52.136;5.424;2023-06-10T07:51:54;101610.28;;;36.05;22.35
76694;BME280;69667;52.136;5.424;2023-06-10T07:54:23;101617.53;;;35.57;23.53
76694;BME280;69667;52.136;5.424;2023-06-10T07:56:53;101618.38;;;35.80;23.06
76694;BME280;69667;52.136;5.424;2023-06-10T07:59:19;101614.72;;;35.57;23.92
76694;BME280;69667;52.136;5.424;2023-06-10T08:01:46;101612.97;;;35.51;23.53
76694;BME280;69667;52.136;5.424;2023-06-10T08:04:13;101613.00;;;34.97;23.99
76694;BME280;69667;52.136;5.424;2023-06-10T08:06:40;101620.66;;;35.01;23.63
76694;BME280;69667;52.136;5.424;2023-06-10T08:09:07;101622.00;;;34.99;24.32
76694;BME280;69667;52.136;5.424;2023-06-10T08:11:33;101618.44;;;34.70;24.17
76694;BME280;69667;52.136;5.424;2023-06-10T08:14:00;101615.59;;;34.53;24.45
76694;BME280;69667;52.136;5.424;2023-06-10T08:16:27;101610.75;;;34.49;24.74
76694;BME280;69667;52.136;5.424;2023-06-10T08:18:54;101612.66;;;34.93;26.43
76694;BME280;69667;52.136;5.424;2023-06-10T08:21:21;101608.75;;;35.32;24.95
76694;BME280;69667;52.136;5.424;2023-06-10T08:23:48;101612.84;;;35.41;23.14
76694;BME280;69667;52.136;5.424;2023-06-10T08:26:14;101613.94;;;35.40;24.68
76694;BME280;69667;52.136;5.424;2023-06-10T08:28:41;101607.03;;;35.48;24.35
76694;BME280;69667;52.136;5.424;2023-06-10T08:31:08;101611.03;;;34.97;24.54
76694;BME280;69667;52.136;5.424;2023-06-10T08:33:38;101615.28;;;34.83;25.77
76694;BME280;69667;52.136;5.424;2023-06-10T08:36:05;101617.06;;;34.89;24.76
76694;BME280;69667;52.136;5.424;2023-06-10T08:38:31;101611.88;;;34.98;24.84
76694;BME280;69667;52.136;5.424;2023-06-10T08:41:03;101609.94;;;34.98;25.01
76694;BME280;69667;52.136;5.424;2023-06-10T08:43:42;101609.00;;;35.31;24.05
76694;BME280;69667;52.136;5.424;2023-06-10T08:46:10;101603.72;;;35.34;22.92
76694;BME280;69667;52.136;5.424;2023-06-10T08:48:42;101613.13;;;34.57;24.41
76694;BME280;69667;52.136;5.424;2023-06-10T08:51:10;101611.53;;;34.44;25.76
76694;BME280;69667;52.136;5.424;2023-06-10T08:53:48;101612.47;;;34.67;24.44
76694;BME280;69667;52.136;5.424;2023-06-10T08:56:17;101608.91;;;35.04;24.70
76694;BME280;69667;52.136;5.424;2023-06-10T08:58:44;101608.44;;;35.12;25.25
76694;BME280;69667;52.136;5.424;2023-06-10T09:01:12;101611.03;;;35.35;24.47
76694;BME280;69667;52.136;5.424;2023-06-10T09:03:39;101610.69;;;35.48;24.70
76694;BME280;69667;52.136;5.424;2023-06-10T09:06:06;101604.53;;;35.51;23.34
76694;BME280;69667;52.136;5.424;2023-06-10T09:08:33;101605.78;;;35.39;25.05
76694;BME280;69667;52.136;5.424;2023-06-10T09:11:01;101615.13;;;35.44;23.29
76694;BME280;69667;52.136;5.424;2023-06-10T09:13:29;101609.78;;;35.26;23.24
76694;BME280;69667;52.136;5.424;2023-06-10T09:15:56;101607.84;;;35.27;24.31
76694;BME280;69667;52.136;5.424;2023-06-10T09:18:29;101604.44;;;35.25;23.46
76694;BME280;69667;52.136;5.424;2023-06-10T09:20:56;101605.56;;;35.45;24.99
76694;BME280;69667;52.136;5.424;2023-06-10T09:23:23;101604.34;;;35.80;23.22
76694;BME280;69667;52.136;5.424;2023-06-10T09:25:56;101601.13;;;35.93;23.71
76694;BME280;69667;52.136;5.424;2023-06-10T09:28:24;101609.41;;;36.04;22.86
76694;BME280;69667;52.136;5.424;2023-06-10T09:31:05;101600.22;;;35.87;23.01
76694;BME280;69667;52.136;5.424;2023-06-10T09:33:37;101609.16;;;36.06;25.37
76694;BME280;69667;52.136;5.424;2023-06-10T09:36:04;101600.59;;;36.49;22.45
76694;BME280;69667;52.136;5.424;2023-06-10T09:38:33;101604.19;;;36.39;22.91
76694;BME280;69667;52.136;5.424;2023-06-10T09:41:00;101596.38;;;36.46;21.84
76694;BME280;69667;52.136;5.424;2023-06-10T09:43:45;101602.19;;;36.35;22.33
76694;BME280;69667;52.136;5.424;2023-06-10T09:46:19;101602.44;;;36.65;21.97
76694;BME280;69667;52.136;5.424;2023-06-10T09:48:47;101602.72;;;36.63;21.52
76694;BME280;69667;52.136;5.424;2023-06-10T09:51:14;101600.38;;;36.29;23.26
76694;BME280;69667;52.136;5.424;2023-06-10T09:53:47;101588.78;;;36.47;24.04
76694;BME280;69667;52.136;5.424;2023-06-10T09:56:14;101596.75;;;36.02;21.09
76694;BME280;69667;52.136;5.424;2023-06-10T09:58:40;101597.72;;;35.91;22.11
76694;BME280;69667;52.136;5.424;2023-06-10T10:01:10;101601.38;;;36.39;21.56
76694;BME280;69667;52.136;5.424;2023-06-10T10:03:48;101592.75;;;35.98;21.89
76694;BME280;69667;52.136;5.424;2023-06-10T10:06:17;101596.06;;;35.46;21.41
76694;BME280;69667;52.136;5.424;2023-06-10T10:08:49;101592.75;;;35.33;21.02
76694;BME280;69667;52.136;5.424;2023-06-10T10:11:22;101597.72;;;35.69;21.97
76694;BME280;69667;52.136;5.424;2023-06-10T10:13:50;101593.56;;;35.72;20.93
76694;BME280;69667;52.136;5.424;2023-06-10T10:16:53;101583.94;;;35.89;24.12
76694;BME280;69667;52.136;5.424;2023-06-10T10:19:27;101586.84;;;36.26;21.08
76694;BME280;69667;52.136;5.424;2023-06-10T10:21:59;101583.28;;;36.62;20.06
76694;BME280;69667;52.136;5.424;2023-06-10T10:24:34;101586.38;;;36.65;21.21
76694;BME280;69667;52.136;5.424;2023-06-10T10:27:16;101580.25;;;36.37;20.64
76694;BME280;69667;52.136;5.424;2023-06-10T10:29:47;101578.81;;;36.34;19.17
76694;BME280;69667;52.136;5.424;2023-06-10T10:32:15;101574.69;;;36.42;19.94
76694;BME280;69667;52.136;5.424;2023-06-10T10:35:21;101580.50;;;36.67;20.07
76694;BME280;69667;52.136;5.424;2023-06-10T10:37:52;101572.47;;;36.80;20.29
76694;BME280;69667;52.136;5.424;2023-06-10T10:40:20;101569.81;;;36.69;19.14
76694;BME280;69667;52.136;5.424;2023-06-10T10:42:51;101569.56;;;36.39;20.24
76694;BME280;69667;52.136;5.424;2023-06-10T10:45:18;101563.44;;;36.42;19.09
76694;BME280;69667;52.136;5.424;2023-06-10T10:47:46;101564.25;;;36.16;18.92
76694;BME280;69667;52.136;5.424;2023-06-10T10:50:19;101558.97;;;35.93;19.17
76694;BME280;69667;52.136;5.424;2023-06-10T10:52:58;101565.03;;;35.85;20.16
76694;BME280;69667;52.136;5.424;2023-06-10T10:55:26;101572.75;;;35.94;19.60
76694;BME280;69667;52.136;5.424;2023-06-10T10:58:04;101565.16;;;35.46;20.03
76694;BME280;69667;52.136;5.424;2023-06-10T11:00:33;101558.50;;;35.79;20.04
76694;BME280;69667;52.136;5.424;2023-06-10T11:03:07;101557.50;;;36.12;19.48
76694;BME280;69667;52.136;5.424;2023-06-10T11:08:15;101557.28;;;35.92;20.57
76694;BME280;69667;52.136;5.424;2023-06-10T11:11:21;101560.38;;;35.68;19.59
76694;BME280;69667;52.136;5.424;2023-06-10T11:13:58;101550.47;;;35.66;20.25
76694;BME280;69667;52.136;5.424;2023-06-10T11:16:28;101550.25;;;35.94;20.62
76694;BME280;69667;52.136;5.424;2023-06-10T11:18:55;101558.81;;;36.04;19.45
76694;BME280;69667;52.136;5.424;2023-06-10T11:21:25;101542.16;;;35.76;19.28
76694;BME280;69667;52.136;5.424;2023-06-10T11:23:57;101540.53;;;35.37;21.26
76694;BME280;69667;52.136;5.424;2023-06-10T11:31:27;101537.22;;;35.18;19.81
76694;BME280;69667;52.136;5.424;2023-06-10T11:34:02;101534.97;;;35.20;20.10
76694;BME280;69667;52.136;5.424;2023-06-10T11:36:30;101542.84;;;35.18;19.93
76694;BME280;69667;52.136;5.424;2023-06-10T11:39:02;101537.28;;;35.23;20.16
76694;BME280;69667;52.136;5.424;2023-06-10T11:41:30;101536.41;;;35.39;19.76
76694;BME280;69667;52.136;5.424;2023-06-10T11:44:02;101541.47;;;35.21;19.67
76694;BME280;69667;52.136;5.424;2023-06-10T11:46:29;101528.56;;;35.41;19.75
76694;BME280;69667;52.136;5.424;2023-06-10T11:48:59;101528.47;;;35.58;19.27
76694;BME280;69667;52.136;5.424;2023-06-10T11:51:31;101525.13;;;35.18;20.05
76694;BME280;69667;52.136;5.424;2023-06-10T11:53:58;101526.47;;;34.94;20.09
76694;BME280;69667;52.136;5.424;2023-06-10T11:56:28;101520.88;;;35.15;21.01
76694;BME280;69667;52.136;5.424;2023-06-10T11:59:03;101521.13;;;35.14;19.62
76694;BME280;69667;52.136;5.424;2023-06-10T12:01:38;101521.59;;;35.06;21.22
76694;BME280;69667;52.136;5.424;2023-06-10T12:04:14;101515.78;;;34.74;20.11
76694;BME280;69667;52.136;5.424;2023-06-10T12:06:49;101521.06;;;34.71;19.42
76694;BME280;69667;52.136;5.424;2023-06-10T12:09:25;101518.00;;;34.39;19.56
76694;BME280;69667;52.136;5.424;2023-06-10T12:11:58;101515.19;;;34.39;21.65
76694;BME280;69667;52.136;5.424;2023-06-10T12:14:49;101511.41;;;34.45;19.95
76694;BME280;69667;52.136;5.424;2023-06-10T12:17:16;101508.63;;;34.33;20.96
76694;BME280;69667;52.136;5.424;2023-06-10T12:19:43;101506.78;;;34.22;20.14
76694;BME280;69667;52.136;5.424;2023-06-10T12:22:10;101499.66;;;34.31;21.21
76694;BME280;69667;52.136;5.424;2023-06-10T12:25:00;101492.66;;;34.34;19.85
76694;BME280;69667;52.136;5.424;2023-06-10T12:27:27;101487.06;;;34.50;20.92
76694;BME280;69667;52.136;5.424;2023-06-10T12:29:57;101491.41;;;34.58;20.29
76694;BME280;69667;52.136;5.424;2023-06-10T12:32:43;101495.22;;;34.35;20.02
76694;BME280;69667;52.136;5.424;2023-06-10T12:35:12;101490.72;;;34.34;21.00
76694;BME280;69667;52.136;5.424;2023-06-10T12:37:40;101492.41;;;34.35;20.75
76694;BME280;69667;52.136;5.424;2023-06-10T12:40:10;101489.28;;;34.48;20.18
76694;BME280;69667;52.136;5.424;2023-06-10T12:42:37;101498.28;;;34.01;20.64
76694;BME280;69667;52.136;5.424;2023-06-10T12:45:05;101492.97;;;33.88;21.11
76694;BME280;69667;52.136;5.424;2023-06-10T12:47:37;101492.84;;;33.94;20.77
76694;BME280;69667;52.136;5.424;2023-06-10T12:50:08;101484.19;;;34.12;20.46
76694;BME280;69667;52.136;5.424;2023-06-10T12:52:35;101488.53;;;34.03;21.73
76694;BME280;69667;52.136;5.424;2023-06-10T12:55:02;101493.44;;;34.29;21.61
76694;BME280;69667;52.136;5.424;2023-06-10T12:57:30;101495.41;;;34.29;21.29
76694;BME280;69667;52.136;5.424;2023-06-10T12:59:57;101491.16;;;34.10;20.94
76694;BME280;69667;52.136;5.424;2023-06-10T13:02:30;101492.25;;;34.25;20.23
76694;BME280;69667;52.136;5.424;2023-06-10T13:04:59;101497.78;;;34.20;20.77
76694;BME280;69667;52.136;5.424;2023-06-10T13:07:26;101495.34;;;33.79;20.67
76694;BME280;69667;52.136;5.424;2023-06-10T13:09:55;101484.38;;;33.78;21.34
76694;BME280;69667;52.136;5.424;2023-06-10T13:12:21;101490.03;;;33.94;20.96
76694;BME280;69667;52.136;5.424;2023-06-10T13:15:04;101488.44;;;33.70;20.37
76694;BME280;69667;52.136;5.424;2023-06-10T13:17:30;101484.34;;;33.61;20.79
76694;BME280;69667;52.136;5.424;2023-06-10T13:19:57;101474.81;;;33.34;21.29
76694;BME280;69667;52.136;5.424;2023-06-10T13:22:24;101471.81;;;33.24;21.07
76694;BME280;69667;52.136;5.424;2023-06-10T13:24:53;101477.25;;;33.42;21.83
76694;BME280;69667;52.136;5.424;2023-06-10T13:27:19;101467.34;;;33.51;21.26
76694;BME280;69667;52.136;5.424;2023-06-10T13:29:46;101468.81;;;33.70;22.88
76694;BME280;69667;52.136;5.424;2023-06-10T13:32:12;101463.47;;;33.69;21.25
76694;BME280;69667;52.136;5.424;2023-06-10T13:34:42;101457.22;;;33.50;21.54
76694;BME280;69667;52.136;5.424;2023-06-10T13:37:11;101461.69;;;33.63;22.58
76694;BME280;69667;52.136;5.424;2023-06-10T13:39:42;101459.84;;;33.85;21.86
76694;BME280;69667;52.136;5.424;2023-06-10T13:42:09;101453.97;;;33.70;21.12
76694;BME280;69667;52.136;5.424;2023-06-10T13:44:35;101447.22;;;33.54;21.39
76694;BME280;69667;52.136;5.424;2023-06-10T13:47:03;101456.59;;;33.60;21.44
76694;BME280;69667;52.136;5.424;2023-06-10T13:49:30;101461.53;;;33.69;21.44
76694;BME280;69667;52.136;5.424;2023-06-10T13:51:57;101457.50;;;33.65;21.57
76694;BME280;69667;52.136;5.424;2023-06-10T13:54:23;101453.28;;;33.34;21.70
76694;BME280;69667;52.136;5.424;2023-06-10T13:56:50;101451.59;;;33.22;20.48
76694;BME280;69667;52.136;5.424;2023-06-10T13:59:18;101447.47;;;33.24;21.75
76694;BME280;69667;52.136;5.424;2023-06-10T14:01:45;101452.41;;;33.34;20.69
76694;BME280;69667;52.136;5.424;2023-06-10T14:04:12;101440.00;;;33.42;23.43
76694;BME280;69667;52.136;5.424;2023-06-10T14:06:39;101442.69;;;33.37;20.61
76694;BME280;69667;52.136;5.424;2023-06-10T14:09:06;101446.47;;;33.30;21.60
76694;BME280;69667;52.136;5.424;2023-06-10T14:11:33;101439.84;;;33.48;22.88
76694;BME280;69667;52.136;5.424;2023-06-10T14:14:00;101433.66;;;33.46;22.22
76694;BME280;69667;52.136;5.424;2023-06-10T14:16:27;101440.16;;;33.52;21.22
76694;BME280;69667;52.136;5.424;2023-06-10T14:18:54;101437.41;;;33.40;20.83
76694;BME280;69667;52.136;5.424;2023-06-10T14:21:20;101442.69;;;33.25;21.00
76694;BME280;69667;52.136;5.424;2023-06-10T14:23:47;101434.81;;;33.22;21.37
76694;BME280;69667;52.136;5.424;2023-06-10T14:26:15;101439.22;;;33.18;21.82
76694;BME280;69667;52.136;5.424;2023-06-10T14:28:43;101445.41;;;33.20;20.89
76694;BME280;69667;52.136;5.424;2023-06-10T14:31:09;101438.88;;;33.14;20.24
76694;BME280;69667;52.136;5.424;2023-06-10T14:33:37;101442.63;;;33.08;21.28
76694;BME280;69667;52.136;5.424;2023-06-10T14:36:06;101438.31;;;33.01;20.58